createdAt,value
2023-03-17T00:01:40.993Z,4.9
2023-03-17T00:04:40.991Z,5.6
2023-03-17T00:07:41.016Z,5.7
2023-03-17T00:10:40.994Z,4.6
2023-03-17T00:13:41.007Z,6.2
2023-03-17T00:16:40.992Z,5.3
2023-03-17T00:19:40.996Z,5.6
2023-03-17T00:22:40.998Z,6
2023-03-17T00:25:41.027Z,6.1
2023-03-17T00:28:41.026Z,5.9
2023-03-17T00:31:41.059Z,5.5
2023-03-17T00:34:41.002Z,5.7
2023-03-17T00:37:41.005Z,6.4
2023-03-17T00:40:41.012Z,5.9
2023-03-17T00:43:41.040Z,7.5
2023-03-17T00:46:41.046Z,6.6
2023-03-17T00:49:41.011Z,6.2
2023-03-17T00:52:41.016Z,5.8
2023-03-17T00:55:41.017Z,6.8
2023-03-17T00:58:41.029Z,6.2
2023-03-17T01:01:41.073Z,6.9
2023-03-17T01:04:41.039Z,7.6
2023-03-17T01:07:41.031Z,5.7
2023-03-17T01:10:41.016Z,6.2
2023-03-17T01:13:41.033Z,6.2
2023-03-17T01:16:41.144Z,7.2
2023-03-17T01:19:41.077Z,5.9
2023-03-17T01:22:41.015Z,6.2
2023-03-17T01:25:41.017Z,5.8
2023-03-17T01:28:41.034Z,6.6
2023-03-17T01:31:41.100Z,6
2023-03-17T01:34:41.034Z,5.7
2023-03-17T01:37:41.060Z,6.3
2023-03-17T01:40:41.023Z,6.4
2023-03-17T01:43:41.026Z,5.5
2023-03-17T01:46:41.031Z,7.7
2023-03-17T01:49:41.036Z,7
2023-03-17T01:52:41.045Z,6.4
2023-03-17T01:55:41.071Z,5.9
2023-03-17T01:58:41.033Z,5.9
2023-03-17T02:01:41.043Z,6.1
2023-03-17T02:04:41.040Z,6.5
2023-03-17T02:07:41.038Z,6.6
2023-03-17T02:10:41.054Z,6.9
2023-03-17T02:13:41.063Z,6
2023-03-17T02:16:41.129Z,6.1
2023-03-17T02:19:41.044Z,5.8
2023-03-17T02:22:41.043Z,5.7
2023-03-17T02:25:41.045Z,6.4
2023-03-17T02:28:41.046Z,5.6
2023-03-17T02:31:41.086Z,5.4
2023-03-17T02:34:41.049Z,5.9
2023-03-17T02:37:41.055Z,6.5
2023-03-17T02:40:41.058Z,5.9
2023-03-17T02:43:41.064Z,6.3
2023-03-17T02:46:41.063Z,6.3
2023-03-17T02:49:41.095Z,5.5
2023-03-17T02:52:41.066Z,6.1
2023-03-17T02:55:41.072Z,5.8
2023-03-17T02:58:41.070Z,6
2023-03-17T03:01:41.092Z,6.7
2023-03-17T03:04:41.074Z,5.8
2023-03-17T03:07:41.098Z,6.2
2023-03-17T03:10:41.085Z,6.8
2023-03-17T03:13:41.080Z,6.1
2023-03-17T03:16:41.092Z,5.2
2023-03-17T03:19:41.084Z,6.6
2023-03-17T03:22:41.090Z,6.5
2023-03-17T03:25:41.111Z,6.4
2023-03-17T03:28:41.090Z,6.8
2023-03-17T03:31:41.088Z,6.1
2023-03-17T03:34:41.087Z,6
2023-03-17T03:37:41.089Z,6.3
2023-03-17T03:40:41.099Z,6.3
2023-03-17T03:43:41.123Z,5.1
2023-03-17T03:46:41.159Z,6
2023-03-17T03:49:41.112Z,5.6
2023-03-17T03:52:41.096Z,6
2023-03-17T03:55:41.128Z,5.8
2023-03-17T03:58:41.101Z,6.4
2023-03-17T04:01:41.132Z,5.8
2023-03-17T04:04:41.206Z,5.7
2023-03-17T04:07:41.113Z,6.1
2023-03-17T04:10:41.105Z,6.1
2023-03-17T04:13:41.117Z,7.3
2023-03-17T04:16:43.329Z,6.2
2023-03-17T04:19:41.147Z,7.1
2023-03-17T04:22:41.115Z,7.2
2023-03-17T04:25:41.117Z,6.5
2023-03-17T04:28:41.127Z,6.1
2023-03-17T04:31:41.150Z,8.5
2023-03-17T04:34:41.126Z,6.2
2023-03-17T04:37:41.158Z,6.4
2023-03-17T04:40:41.129Z,7
2023-03-17T04:43:41.145Z,6.7
2023-03-17T04:46:41.132Z,5.9
2023-03-17T04:49:41.134Z,7.2
2023-03-17T04:52:41.136Z,6.9
2023-03-17T04:55:41.171Z,6
2023-03-17T04:58:41.144Z,7.1
2023-03-17T05:01:41.167Z,6.7
2023-03-17T05:04:41.154Z,6.8
2023-03-17T05:07:41.152Z,6.8
2023-03-17T05:10:41.161Z,6.3
2023-03-17T05:13:41.195Z,6.2
2023-03-17T05:16:41.261Z,6.6
2023-03-17T05:19:41.177Z,7.4
2023-03-17T05:22:41.175Z,6.4
2023-03-17T05:25:41.182Z,6.4
2023-03-17T05:28:41.257Z,6.7
2023-03-17T05:31:41.212Z,6.1
2023-03-17T05:34:41.232Z,7.2
2023-03-17T05:37:41.180Z,7.3
2023-03-17T05:40:41.185Z,6.9
2023-03-17T05:43:41.186Z,7.2
2023-03-17T05:46:41.194Z,6.7
2023-03-17T05:49:41.215Z,7.2
2023-03-17T05:52:41.187Z,6.8
2023-03-17T05:55:41.194Z,7.7
2023-03-17T05:58:41.193Z,7.6
2023-03-17T06:01:41.201Z,7
2023-03-17T06:04:41.231Z,7.3
2023-03-17T06:07:51.131Z,7.2
2023-03-17T06:10:41.210Z,7.2
2023-03-17T06:13:41.212Z,6.8
2023-03-17T06:16:41.215Z,7.3
2023-03-17T06:19:41.219Z,6.7
2023-03-17T06:22:51.839Z,5.8
2023-03-17T06:25:41.248Z,6.7
2023-03-17T06:28:41.231Z,6.2
2023-03-17T06:31:41.285Z,6.6
2023-03-17T06:34:41.234Z,6.2
2023-03-17T06:37:41.243Z,6.6
2023-03-17T06:40:41.240Z,6.6
2023-03-17T06:43:41.278Z,6.3
2023-03-17T06:46:41.254Z,7.4
2023-03-17T06:49:41.238Z,6.8
2023-03-17T06:52:41.246Z,6.5
2023-03-17T06:55:41.256Z,7.4
2023-03-17T06:58:41.251Z,6.1
2023-03-17T07:01:41.312Z,6.9
2023-03-17T07:04:41.346Z,9.4
2023-03-17T07:07:41.265Z,10.1
2023-03-17T07:10:41.272Z,10.2
2023-03-17T07:13:41.294Z,7.2
2023-03-17T07:16:41.312Z,8.4
2023-03-17T07:19:41.296Z,7.8
2023-03-17T07:22:41.286Z,8.5
2023-03-17T07:25:41.295Z,8
2023-03-17T07:28:41.281Z,8.1
2023-03-17T07:31:41.465Z,7.9
2023-03-17T07:34:41.290Z,8.3
2023-03-17T07:37:41.313Z,9.1
2023-03-17T07:40:41.310Z,10
2023-03-17T07:43:41.307Z,7.2
2023-03-17T07:46:41.302Z,5.9
2023-03-17T07:49:42.399Z,6.1
2023-03-17T07:52:41.317Z,5.9
2023-03-17T07:55:41.385Z,6.3
2023-03-17T07:58:41.325Z,7.3
2023-03-17T08:01:41.382Z,7.1
2023-03-17T08:04:41.329Z,6.6
2023-03-17T08:07:41.337Z,7.7
2023-03-17T08:10:41.334Z,7.3
2023-03-17T08:13:41.375Z,7.4
2023-03-17T08:16:41.496Z,7.8
2023-03-17T08:19:41.371Z,6.8
2023-03-17T08:22:41.354Z,6.5
2023-03-17T08:25:41.378Z,7.8
2023-03-17T08:28:41.353Z,7.2
2023-03-17T08:31:41.456Z,6.3
2023-03-17T08:34:41.352Z,6.1
2023-03-17T08:37:41.359Z,6.1
2023-03-17T08:40:41.378Z,6.8
2023-03-17T08:43:41.367Z,6.6
2023-03-17T08:46:41.369Z,6.4
2023-03-17T08:49:41.403Z,6
2023-03-17T08:52:41.378Z,6.5
2023-03-17T08:55:41.393Z,6.1
2023-03-17T08:58:41.390Z,6.6
2023-03-17T09:01:41.482Z,5.3
2023-03-17T09:04:41.401Z,6
2023-03-17T09:07:41.561Z,5.4
2023-03-17T09:10:43.794Z,6.1
2023-03-17T09:13:41.429Z,5.9
2023-03-17T09:16:41.412Z,6
2023-03-17T09:19:41.419Z,5.8
2023-03-17T09:22:41.431Z,5
2023-03-17T09:25:41.465Z,5
2023-03-17T09:28:41.425Z,6
2023-03-17T09:31:41.530Z,6.3
2023-03-17T09:34:41.527Z,4.7
2023-03-17T09:37:41.442Z,5.3
2023-03-17T09:40:41.456Z,5.5
2023-03-17T09:43:41.481Z,7.1
2023-03-17T09:46:41.513Z,6
2023-03-17T09:49:41.462Z,6.6
2023-03-17T09:52:41.461Z,5.6
2023-03-17T09:55:41.467Z,5.9
2023-03-17T09:58:41.469Z,5.7
2023-03-17T10:01:41.502Z,5.2
2023-03-17T10:04:41.474Z,5.5
2023-03-17T10:07:41.479Z,5.9
2023-03-17T10:10:41.481Z,7.2
2023-03-17T10:13:41.483Z,5.7
2023-03-17T10:16:41.503Z,5.3
2023-03-17T10:19:41.513Z,5.5
2023-03-17T10:22:41.491Z,7.2
2023-03-17T10:25:41.514Z,4.5
2023-03-17T10:28:41.505Z,4.9
2023-03-17T10:31:41.566Z,4.8
2023-03-17T10:34:41.548Z,5.1
2023-03-17T10:37:43.790Z,5.8
2023-03-17T10:40:41.512Z,5
2023-03-17T10:43:41.515Z,6.8
2023-03-17T10:46:41.637Z,5.3
2023-03-17T10:49:41.530Z,7.1
2023-03-17T10:52:41.555Z,4.8
2023-03-17T10:55:41.563Z,5.6
2023-03-17T10:58:41.540Z,6.4
2023-03-17T11:01:41.541Z,5.7
2023-03-17T11:04:41.551Z,5.5
2023-03-17T11:07:41.653Z,6.1
2023-03-17T11:10:41.583Z,5.2
2023-03-17T11:13:41.590Z,6
2023-03-17T11:16:41.624Z,4.2
2023-03-17T11:19:41.575Z,6.6
2023-03-17T11:22:41.585Z,6.2
2023-03-17T11:25:41.594Z,6
2023-03-17T11:28:41.591Z,5.8
2023-03-17T11:31:41.715Z,6.1
2023-03-17T11:34:41.603Z,4
2023-03-17T11:37:41.617Z,5
2023-03-17T11:40:41.609Z,5.4
2023-03-17T11:43:41.621Z,6.1
2023-03-17T11:46:41.627Z,5.4
2023-03-17T11:49:41.657Z,5.2
2023-03-17T11:52:41.638Z,4.8
2023-03-17T11:55:41.642Z,4.6
2023-03-17T11:58:41.640Z,5.2
2023-03-17T12:01:41.648Z,5.2
2023-03-17T12:04:41.657Z,4.3
2023-03-17T12:07:41.684Z,6.6
2023-03-17T12:10:41.666Z,4.4
2023-03-17T12:13:41.672Z,4.6
2023-03-17T12:16:41.701Z,4.5
2023-03-17T12:19:41.684Z,4.7
2023-03-17T12:22:41.687Z,4.8
2023-03-17T12:25:41.716Z,4.6
2023-03-17T12:28:41.698Z,4.5
2023-03-17T12:31:41.708Z,5.6
2023-03-17T12:34:41.717Z,4.1
2023-03-17T12:37:41.722Z,5
2023-03-17T12:40:41.728Z,4.9
2023-03-17T12:43:41.760Z,5
2023-03-17T12:46:41.855Z,5.2
2023-03-17T12:49:41.748Z,4.8
2023-03-17T12:52:41.748Z,4.8
2023-03-17T12:55:41.757Z,5.2
2023-03-17T12:58:41.761Z,4.8
2023-03-17T13:01:41.837Z,4.8
2023-03-17T13:04:41.778Z,5.3
2023-03-17T13:07:41.784Z,4.1
2023-03-17T13:10:41.794Z,5.1
2023-03-17T13:13:41.813Z,4.8
2023-03-17T13:16:41.821Z,4.8
2023-03-17T13:19:41.859Z,3.6
2023-03-17T13:22:41.844Z,8.2
2023-03-17T13:25:41.876Z,6.2
2023-03-17T13:28:41.840Z,6.5
2023-03-17T13:31:41.896Z,3.8
2023-03-17T13:34:41.865Z,3.5
2023-03-17T13:37:41.897Z,3.1
2023-03-17T13:40:41.880Z,3.5
2023-03-17T13:43:43.550Z,4
2023-03-17T13:46:41.989Z,3.4
2023-03-17T13:49:41.914Z,2.5
2023-03-17T13:52:41.924Z,2.3
2023-03-17T13:55:41.991Z,4.3
2023-03-17T13:58:41.929Z,2.8
2023-03-17T14:01:41.932Z,2.5
2023-03-17T14:04:41.937Z,2
2023-03-17T14:07:41.942Z,2.5
2023-03-17T14:10:41.955Z,2.6
2023-03-17T14:13:41.991Z,2.2
2023-03-17T14:16:42.040Z,3.9
2023-03-17T14:19:41.965Z,3.3
2023-03-17T14:22:44.477Z,4.2
2023-03-17T14:25:41.983Z,3.5
2023-03-17T14:28:42.009Z,3.9
2023-03-17T14:31:42.042Z,5.3
2023-03-17T14:34:42.004Z,4.7
2023-03-17T14:37:42.006Z,5.5
2023-03-17T14:40:42.015Z,3.2
2023-03-17T14:43:42.016Z,3.3
2023-03-17T14:46:42.035Z,2.3
2023-03-17T14:49:42.052Z,3
2023-03-17T14:52:42.037Z,2.3
2023-03-17T14:55:43.371Z,3.8
2023-03-17T14:58:42.049Z,3.3
2023-03-17T15:01:42.056Z,5.1
2023-03-17T15:04:42.070Z,4.2
2023-03-17T15:07:42.117Z,3
2023-03-17T15:10:42.087Z,2.7
2023-03-17T15:13:42.080Z,2.8
2023-03-17T15:16:42.157Z,2.7
2023-03-17T15:19:42.100Z,3.1
2023-03-17T15:22:42.112Z,2.6
2023-03-17T15:25:42.211Z,3.6
2023-03-17T15:28:42.118Z,3
2023-03-17T15:31:42.191Z,2.8
2023-03-17T15:34:42.131Z,3.4
2023-03-17T15:37:42.138Z,4.7
2023-03-17T15:40:42.138Z,2.6
2023-03-17T15:43:42.177Z,3.1
2023-03-17T15:46:42.161Z,3
2023-03-17T15:49:42.197Z,3.6
2023-03-17T15:52:42.162Z,2.4
2023-03-17T15:55:42.167Z,3
2023-03-17T15:58:42.179Z,2.8
2023-03-17T16:01:42.237Z,3.4
2023-03-17T16:04:42.216Z,3.5
2023-03-17T16:07:42.184Z,3.5
2023-03-17T16:10:42.191Z,3
2023-03-17T16:13:42.191Z,3.2
2023-03-17T16:16:42.203Z,3.1
2023-03-17T16:19:42.231Z,3
2023-03-17T16:22:42.214Z,3.4
2023-03-17T16:25:42.208Z,3.3
2023-03-17T16:28:42.212Z,4.1
2023-03-17T16:31:42.219Z,3.5
2023-03-17T16:34:42.226Z,4.3
2023-03-17T16:37:42.254Z,4.1
2023-03-17T16:40:42.234Z,3.7
2023-03-17T16:43:42.237Z,3.9
2023-03-17T16:46:42.266Z,3.1
2023-03-17T16:49:42.233Z,2.9
2023-03-17T16:52:42.275Z,4
2023-03-17T16:55:42.265Z,3.6
2023-03-17T16:58:42.259Z,5
2023-03-17T17:01:42.260Z,6.5
2023-03-17T17:04:42.250Z,5.8
2023-03-17T17:07:42.249Z,4.4
2023-03-17T17:10:42.245Z,5.2
2023-03-17T17:13:42.290Z,3.7
2023-03-17T17:16:42.275Z,4
2023-03-17T17:19:42.252Z,4.5
2023-03-17T17:22:42.271Z,5.6
2023-03-17T17:25:42.252Z,4.6
2023-03-17T17:28:42.263Z,4.1
2023-03-17T17:31:42.310Z,3.9
2023-03-17T17:34:42.269Z,5
2023-03-17T17:37:42.272Z,5.5
2023-03-17T17:40:42.269Z,4.6
2023-03-17T17:43:42.370Z,6.4
2023-03-17T17:46:42.351Z,5.4
2023-03-17T17:49:42.302Z,5.9
2023-03-17T17:52:42.273Z,7.6
2023-03-17T17:55:42.275Z,6.3
2023-03-17T17:58:42.279Z,7
2023-03-17T18:01:42.280Z,9.7
2023-03-17T18:04:42.341Z,5.9
2023-03-17T18:07:42.317Z,7.3
2023-03-17T18:10:42.300Z,7.8
2023-03-17T18:13:42.299Z,8.1
2023-03-17T18:16:42.336Z,8.1
2023-03-17T18:19:42.314Z,8
2023-03-17T18:22:42.318Z,7.3
2023-03-17T18:25:42.347Z,7.4
2023-03-17T18:28:42.329Z,6
2023-03-17T18:31:42.403Z,5.6
2023-03-17T18:34:42.335Z,6.9
2023-03-17T18:37:42.342Z,7.1
2023-03-17T18:40:42.345Z,6.1
2023-03-17T18:43:42.371Z,6.7
2023-03-17T18:46:42.358Z,8.6
2023-03-17T18:49:42.362Z,9.3
2023-03-17T18:52:42.369Z,9.3
2023-03-17T18:55:42.376Z,10.1
2023-03-17T18:58:42.405Z,11.4
2023-03-17T19:01:42.409Z,14.1
2023-03-17T19:04:42.392Z,10.7
2023-03-17T19:07:42.394Z,12.2
2023-03-17T19:10:42.402Z,10
2023-03-17T19:13:42.413Z,10.7
2023-03-17T19:16:42.428Z,10.1
2023-03-17T19:19:42.446Z,9.8
2023-03-17T19:22:42.423Z,7.4
2023-03-17T19:25:42.433Z,13.6
2023-03-17T19:28:42.436Z,12.6
2023-03-17T19:31:42.461Z,7.4
2023-03-17T19:34:42.446Z,6.7
2023-03-17T19:37:42.473Z,7
2023-03-17T19:40:42.453Z,6.8
2023-03-17T19:43:42.465Z,7.2
2023-03-17T19:46:42.475Z,5.7
2023-03-17T19:49:42.479Z,5.3
2023-03-17T19:52:42.483Z,6.5
2023-03-17T19:55:42.517Z,6.6
2023-03-17T19:58:42.498Z,7.2
2023-03-17T20:01:42.588Z,6.4
2023-03-17T20:04:42.507Z,5.8
2023-03-17T20:07:42.537Z,6.4
2023-03-17T20:10:42.514Z,5.5
2023-03-17T20:13:42.547Z,9.5
2023-03-17T20:16:42.532Z,13.4
2023-03-17T20:19:42.523Z,18.8
2023-03-17T20:22:42.529Z,15.4
2023-03-17T20:25:42.531Z,12.7
2023-03-17T20:28:42.599Z,8.6
2023-03-17T20:31:42.568Z,6.7
2023-03-17T20:34:42.534Z,6.1
2023-03-17T20:37:42.553Z,6.4
2023-03-17T20:40:42.545Z,5.9
2023-03-17T20:43:42.547Z,6.5
2023-03-17T20:46:42.628Z,6.5
2023-03-17T20:49:42.590Z,6
2023-03-17T20:52:42.549Z,6.1
2023-03-17T20:55:42.558Z,6.3
2023-03-17T20:58:42.557Z,5.8
2023-03-17T21:01:42.671Z,5.7
2023-03-17T21:04:42.566Z,6.2
2023-03-17T21:07:42.585Z,5.6
2023-03-17T21:10:42.570Z,7.3
2023-03-17T21:13:42.560Z,5.6
2023-03-17T21:16:42.568Z,6.6
2023-03-17T21:19:42.563Z,5.5
2023-03-17T21:22:42.570Z,6.7
2023-03-17T21:25:42.595Z,6.3
2023-03-17T21:28:42.575Z,5
2023-03-17T21:31:42.622Z,6.3
2023-03-17T21:34:42.584Z,7.1
2023-03-17T21:37:42.571Z,6.7
2023-03-17T21:40:42.567Z,6.4
2023-03-17T21:43:42.620Z,6.5
2023-03-17T21:46:42.578Z,6.1
2023-03-17T21:49:42.579Z,6.7
2023-03-17T21:52:42.578Z,6.3
2023-03-17T21:55:42.578Z,7.1
2023-03-17T21:58:42.579Z,5.8
2023-03-17T22:01:42.675Z,5.4
2023-03-17T22:04:42.585Z,6.9
2023-03-17T22:07:42.584Z,6.6
2023-03-17T22:10:42.587Z,6.2
2023-03-17T22:13:42.596Z,7.5
2023-03-17T22:16:42.614Z,6.8
2023-03-17T22:19:42.616Z,6.9
2023-03-17T22:22:42.593Z,8.4
2023-03-17T22:25:42.597Z,6.9
2023-03-17T22:28:42.597Z,7.3
2023-03-17T22:31:42.723Z,7
2023-03-17T22:34:42.604Z,7.5
2023-03-17T22:37:42.629Z,7.4
2023-03-17T22:40:42.604Z,8.9
2023-03-17T22:43:42.611Z,11.5
2023-03-17T22:46:42.629Z,12
2023-03-17T22:49:42.618Z,10.6
2023-03-17T22:52:42.615Z,9.3
2023-03-17T22:55:42.647Z,8.3
2023-03-17T22:58:42.615Z,6.9
2023-03-17T23:01:42.628Z,7.6
2023-03-17T23:04:42.620Z,7.7
2023-03-17T23:07:50.232Z,7.2
2023-03-17T23:10:42.623Z,6.9
2023-03-17T23:13:42.657Z,7.5
2023-03-17T23:16:42.693Z,7.2
2023-03-17T23:19:42.625Z,7.7
2023-03-17T23:22:42.662Z,7.4
2023-03-17T23:25:42.635Z,7
2023-03-17T23:28:42.641Z,7.6
2023-03-17T23:31:42.662Z,8
2023-03-17T23:34:42.644Z,7
2023-03-17T23:37:42.644Z,6.3
2023-03-17T23:40:42.647Z,7.8
2023-03-17T23:43:42.641Z,8.5
2023-03-17T23:46:42.636Z,8.9
2023-03-17T23:49:42.671Z,7.8
2023-03-17T23:52:42.644Z,7.3
2023-03-17T23:55:42.640Z,7.3
2023-03-17T23:58:42.642Z,8.5
